sensor_id;sensor_type;location;lat;lon;timestamp;temperature;humidity
3816;DHT22;1923;48.154;11.536;2023-08-06T00:01:36;16.90;99.90
3816;DHT22;1923;48.154;11.536;2023-08-06T00:04:04;16.90;99.90
3816;DHT22;1923;48.154;11.536;2023-08-06T00:06:32;16.90;99.90
3816;DHT22;1923;48.154;11.536;2023-08-06T00:09:00;16.90;99.90
3816;DHT22;1923;48.154;11.536;2023-08-06T00:11:28;17.00;99.90
3816;DHT22;1923;48.154;11.536;2023-08-06T00:13:58;17.00;99.90
3816;DHT22;1923;48.154;11.536;2023-08-06T00:16:26;17.00;99.90
3816;DHT22;1923;48.154;11.536;2023-08-06T00:18:54;17.00;99.90
3816;DHT22;1923;48.154;11.536;2023-08-06T00:21:22;16.90;99.90
3816;DHT22;1923;48.154;11.536;2023-08-06T00:23:50;16.80;99.90
3816;DHT22;1923;48.154;11.536;2023-08-06T00:26:19;16.80;99.90
3816;DHT22;1923;48.154;11.536;2023-08-06T00:28:47;16.80;99.90
3816;DHT22;1923;48.154;11.536;2023-08-06T00:31:16;16.80;99.90
3816;DHT22;1923;48.154;11.536;2023-08-06T00:33:44;16.80;99.90
3816;DHT22;1923;48.154;11.536;2023-08-06T00:36:13;16.70;99.90
3816;DHT22;1923;48.154;11.536;2023-08-06T00:38:41;16.70;99.90
3816;DHT22;1923;48.154;11.536;2023-08-06T00:41:09;16.70;99.90
3816;DHT22;1923;48.154;11.536;2023-08-06T00:43:37;16.70;99.90
3816;DHT22;1923;48.154;11.536;2023-08-06T00:46:05;16.80;99.90
3816;DHT22;1923;48.154;11.536;2023-08-06T00:48:35;16.70;99.90
3816;DHT22;1923;48.154;11.536;2023-08-06T00:51:03;16.70;99.90
3816;DHT22;1923;48.154;11.536;2023-08-06T00:53:31;16.70;99.90
3816;DHT22;1923;48.154;11.536;2023-08-06T00:55:59;16.50;99.90
3816;DHT22;1923;48.154;11.536;2023-08-06T00:58:28;16.60;99.90
3816;DHT22;1923;48.154;11.536;2023-08-06T01:00:56;16.50;99.90
3816;DHT22;1923;48.154;11.536;2023-08-06T01:03:24;16.50;99.90
3816;DHT22;1923;48.154;11.536;2023-08-06T01:05:54;16.40;99.90
3816;DHT22;1923;48.154;11.536;2023-08-06T01:08:30;16.30;99.90
3816;DHT22;1923;48.154;11.536;2023-08-06T01:11:08;16.30;99.90
3816;DHT22;1923;48.154;11.536;2023-08-06T01:13:42;16.30;99.90
3816;DHT22;1923;48.154;11.536;2023-08-06T01:16:15;16.30;99.90
3816;DHT22;1923;48.154;11.536;2023-08-06T01:18:44;16.30;99.90
3816;DHT22;1923;48.154;11.536;2023-08-06T01:21:14;16.20;99.90
3816;DHT22;1923;48.154;11.536;2023-08-06T01:23:43;16.20;99.90
3816;DHT22;1923;48.154;11.536;2023-08-06T01:26:17;16.00;99.90
3816;DHT22;1923;48.154;11.536;2023-08-06T01:28:53;16.10;99.90
3816;DHT22;1923;48.154;11.536;2023-08-06T01:31:27;16.00;99.90
3816;DHT22;1923;48.154;11.536;2023-08-06T01:33:56;16.10;99.90
3816;DHT22;1923;48.154;11.536;2023-08-06T01:36:28;16.00;99.90
3816;DHT22;1923;48.154;11.536;2023-08-06T01:38:58;16.00;99.90
3816;DHT22;1923;48.154;11.536;2023-08-06T01:41:26;16.00;99.90
3816;DHT22;1923;48.154;11.536;2023-08-06T01:43:54;15.90;99.90
3816;DHT22;1923;48.154;11.536;2023-08-06T01:46:22;15.90;99.90
3816;DHT22;1923;48.154;11.536;2023-08-06T01:48:50;15.90;99.90
3816;DHT22;1923;48.154;11.536;2023-08-06T01:51:18;15.90;99.90
3816;DHT22;1923;48.154;11.536;2023-08-06T01:53:48;16.00;99.90
3816;DHT22;1923;48.154;11.536;2023-08-06T01:56:16;16.00;99.90
3816;DHT22;1923;48.154;11.536;2023-08-06T01:58:44;16.00;99.90
3816;DHT22;1923;48.154;11.536;2023-08-06T02:01:12;16.00;99.90
3816;DHT22;1923;48.154;11.536;2023-08-06T02:03:40;15.90;99.90
3816;DHT22;1923;48.154;11.536;2023-08-06T02:06:08;15.90;99.90
3816;DHT22;1923;48.154;11.536;2023-08-06T02:08:36;15.90;99.90
3816;DHT22;1923;48.154;11.536;2023-08-06T02:11:06;15.90;99.90
3816;DHT22;1923;48.154;11.536;2023-08-06T02:13:34;15.80;99.90
3816;DHT22;1923;48.154;11.536;2023-08-06T02:16:03;15.90;99.90
3816;DHT22;1923;48.154;11.536;2023-08-06T02:18:31;15.90;99.90
3816;DHT22;1923;48.154;11.536;2023-08-06T02:20:59;15.90;99.90
3816;DHT22;1923;48.154;11.536;2023-08-06T02:23:28;15.90;99.90
3816;DHT22;1923;48.154;11.536;2023-08-06T02:26:00;15.90;99.90
3816;DHT22;1923;48.154;11.536;2023-08-06T02:28:30;15.80;99.90
3816;DHT22;1923;48.154;11.536;2023-08-06T02:30:58;15.70;99.90
3816;DHT22;1923;48.154;11.536;2023-08-06T02:33:26;15.80;99.90
3816;DHT22;1923;48.154;11.536;2023-08-06T02:35:59;15.80;99.90
3816;DHT22;1923;48.154;11.536;2023-08-06T02:38:28;15.80;99.90
3816;DHT22;1923;48.154;11.536;2023-08-06T02:40:56;15.80;99.90
3816;DHT22;1923;48.154;11.536;2023-08-06T02:43:24;15.80;99.90
3816;DHT22;1923;48.154;11.536;2023-08-06T02:45:56;15.90;99.90
3816;DHT22;1923;48.154;11.536;2023-08-06T02:48:25;15.90;99.90
3816;DHT22;1923;48.154;11.536;2023-08-06T02:50:53;15.90;99.90
3816;DHT22;1923;48.154;11.536;2023-08-06T02:53:27;15.80;99.90
3816;DHT22;1923;48.154;11.536;2023-08-06T02:55:55;15.80;99.90
3816;DHT22;1923;48.154;11.536;2023-08-06T02:58:23;15.90;99.90
3816;DHT22;1923;48.154;11.536;2023-08-06T03:01:04;15.90;99.90
3816;DHT22;1923;48.154;11.536;2023-08-06T03:03:33;15.80;99.90
3816;DHT22;1923;48.154;11.536;2023-08-06T03:06:02;15.70;99.90
3816;DHT22;1923;48.154;11.536;2023-08-06T03:08:30;15.70;99.90
3816;DHT22;1923;48.154;11.536;2023-08-06T03:10:58;15.60;99.90
3816;DHT22;1923;48.154;11.536;2023-08-06T03:13:26;15.60;99.90
3816;DHT22;1923;48.154;11.536;2023-08-06T03:15:56;15.60;99.90
3816;DHT22;1923;48.154;11.536;2023-08-06T03:18:26;15.60;99.90
3816;DHT22;1923;48.154;11.536;2023-08-06T03:20:55;15.50;99.90
3816;DHT22;1923;48.154;11.536;2023-08-06T03:23:23;15.50;99.90
3816;DHT22;1923;48.154;11.536;2023-08-06T03:25:51;15.50;99.90
3816;DHT22;1923;48.154;11.536;2023-08-06T03:28:19;15.40;99.90
3816;DHT22;1923;48.154;11.536;2023-08-06T03:30:57;15.40;99.90
3816;DHT22;1923;48.154;11.536;2023-08-06T03:33:27;15.40;99.90
3816;DHT22;1923;48.154;11.536;2023-08-06T03:35:55;15.40;99.90
3816;DHT22;1923;48.154;11.536;2023-08-06T03:38:23;15.30;99.90
3816;DHT22;1923;48.154;11.536;2023-08-06T03:40:51;15.20;99.90
3816;DHT22;1923;48.154;11.536;2023-08-06T03:43:20;15.30;99.90
3816;DHT22;1923;48.154;11.536;2023-08-06T03:45:48;15.40;99.90
3816;DHT22;1923;48.154;11.536;2023-08-06T03:48:16;15.40;99.90
3816;DHT22;1923;48.154;11.536;2023-08-06T03:50:45;15.30;99.90
3816;DHT22;1923;48.154;11.536;2023-08-06T03:53:13;15.40;99.90
3816;DHT22;1923;48.154;11.536;2023-08-06T03:55:41;15.40;99.90
3816;DHT22;1923;48.154;11.536;2023-08-06T03:58:09;15.30;99.90
3816;DHT22;1923;48.154;11.536;2023-08-06T04:00:37;15.40;99.90
3816;DHT22;1923;48.154;11.536;2023-08-06T04:03:05;15.30;99.90
3816;DHT22;1923;48.154;11.536;2023-08-06T04:05:34;15.30;99.90
3816;DHT22;1923;48.154;11.536;2023-08-06T04:08:03;15.30;99.90
3816;DHT22;1923;48.154;11.536;2023-08-06T04:10:32;15.30;99.90
3816;DHT22;1923;48.154;11.536;2023-08-06T04:13:00;15.20;99.90
3816;DHT22;1923;48.154;11.536;2023-08-06T04:15:28;15.20;99.90
3816;DHT22;1923;48.154;11.536;2023-08-06T04:17:56;15.20;99.90
3816;DHT22;1923;48.154;11.536;2023-08-06T04:20:27;15.20;99.90
3816;DHT22;1923;48.154;11.536;2023-08-06T04:22:55;15.20;99.90
3816;DHT22;1923;48.154;11.536;2023-08-06T04:25:25;15.20;99.90
3816;DHT22;1923;48.154;11.536;2023-08-06T04:27:53;15.20;99.90
3816;DHT22;1923;48.154;11.536;2023-08-06T04:30:21;15.20;99.90
3816;DHT22;1923;48.154;11.536;2023-08-06T04:32:50;15.20;99.90
3816;DHT22;1923;48.154;11.536;2023-08-06T04:35:18;15.30;99.90
3816;DHT22;1923;48.154;11.536;2023-08-06T04:37:46;15.40;99.90
3816;DHT22;1923;48.154;11.536;2023-08-06T04:40:14;15.30;99.90
3816;DHT22;1923;48.154;11.536;2023-08-06T04:42:43;15.30;99.90
3816;DHT22;1923;48.154;11.536;2023-08-06T04:45:13;15.30;99.90
3816;DHT22;1923;48.154;11.536;2023-08-06T04:47:41;15.30;99.90
3816;DHT22;1923;48.154;11.536;2023-08-06T04:50:10;15.40;99.90
3816;DHT22;1923;48.154;11.536;2023-08-06T04:52:38;15.40;99.90
3816;DHT22;1923;48.154;11.536;2023-08-06T04:55:06;15.40;99.90
3816;DHT22;1923;48.154;11.536;2023-08-06T04:57:34;15.60;99.90
3816;DHT22;1923;48.154;11.536;2023-08-06T05:00:05;15.60;99.90
3816;DHT22;1923;48.154;11.536;2023-08-06T05:02:33;15.70;99.90
3816;DHT22;1923;48.154;11.536;2023-08-06T05:05:01;15.70;99.90
3816;DHT22;1923;48.154;11.536;2023-08-06T05:07:30;15.60;99.90
3816;DHT22;1923;48.154;11.536;2023-08-06T05:09:58;15.70;99.90
3816;DHT22;1923;48.154;11.536;2023-08-06T05:12:26;15.80;99.90
3816;DHT22;1923;48.154;11.536;2023-08-06T05:14:54;15.80;99.90
3816;DHT22;1923;48.154;11.536;2023-08-06T05:17:23;15.90;99.90
3816;DHT22;1923;48.154;11.536;2023-08-06T05:19:51;15.90;99.90
3816;DHT22;1923;48.154;11.536;2023-08-06T05:22:19;15.80;99.90
3816;DHT22;1923;48.154;11.536;2023-08-06T05:24:48;15.80;99.90
3816;DHT22;1923;48.154;11.536;2023-08-06T05:27:15;15.80;99.90
3816;DHT22;1923;48.154;11.536;2023-08-06T05:29:45;15.90;99.90
3816;DHT22;1923;48.154;11.536;2023-08-06T05:32:19;15.90;99.90
3816;DHT22;1923;48.154;11.536;2023-08-06T05:34:48;16.00;99.90
3816;DHT22;1923;48.154;11.536;2023-08-06T05:37:17;16.00;99.90
3816;DHT22;1923;48.154;11.536;2023-08-06T05:39:46;16.10;99.90
3816;DHT22;1923;48.154;11.536;2023-08-06T05:42:14;16.20;99.90
3816;DHT22;1923;48.154;11.536;2023-08-06T05:44:42;16.20;99.90
3816;DHT22;1923;48.154;11.536;2023-08-06T05:47:10;16.30;99.90
3816;DHT22;1923;48.154;11.536;2023-08-06T05:49:38;16.20;99.90
3816;DHT22;1923;48.154;11.536;2023-08-06T05:52:08;16.20;99.90
3816;DHT22;1923;48.154;11.536;2023-08-06T05:54:36;16.20;99.90
3816;DHT22;1923;48.154;11.536;2023-08-06T05:57:05;16.30;99.90
3816;DHT22;1923;48.154;11.536;2023-08-06T05:59:33;16.30;99.90
3816;DHT22;1923;48.154;11.536;2023-08-06T06:02:01;16.40;99.90
3816;DHT22;1923;48.154;11.536;2023-08-06T06:04:29;16.50;99.90
3816;DHT22;1923;48.154;11.536;2023-08-06T06:06:57;16.50;99.90
3816;DHT22;1923;48.154;11.536;2023-08-06T06:09:27;16.60;99.90
3816;DHT22;1923;48.154;11.536;2023-08-06T06:11:55;16.60;99.90
3816;DHT22;1923;48.154;11.536;2023-08-06T06:14:23;16.70;99.90
3816;DHT22;1923;48.154;11.536;2023-08-06T06:16:51;16.80;99.90
3816;DHT22;1923;48.154;11.536;2023-08-06T06:19:20;16.90;99.90
3816;DHT22;1923;48.154;11.536;2023-08-06T06:21:48;17.10;99.90
3816;DHT22;1923;48.154;11.536;2023-08-06T06:24:16;17.10;99.90
3816;DHT22;1923;48.154;11.536;2023-08-06T06:26:45;17.10;99.90
3816;DHT22;1923;48.154;11.536;2023-08-06T06:29:13;17.20;99.90
3816;DHT22;1923;48.154;11.536;2023-08-06T06:31:41;17.20;99.90
3816;DHT22;1923;48.154;11.536;2023-08-06T06:34:09;17.30;99.90
3816;DHT22;1923;48.154;11.536;2023-08-06T06:36:37;17.20;99.90
3816;DHT22;1923;48.154;11.536;2023-08-06T06:39:06;17.30;99.90
3816;DHT22;1923;48.154;11.536;2023-08-06T06:41:35;17.40;99.90
3816;DHT22;1923;48.154;11.536;2023-08-06T06:44:05;17.50;99.90
3816;DHT22;1923;48.154;11.536;2023-08-06T06:46:33;17.50;99.90
3816;DHT22;1923;48.154;11.536;2023-08-06T06:49:01;17.60;99.90
3816;DHT22;1923;48.154;11.536;2023-08-06T06:51:29;17.60;99.90
3816;DHT22;1923;48.154;11.536;2023-08-06T06:53:58;17.70;99.90
3816;DHT22;1923;48.154;11.536;2023-08-06T06:56:27;17.70;99.90
3816;DHT22;1923;48.154;11.536;2023-08-06T06:58:55;17.80;99.90
3816;DHT22;1923;48.154;11.536;2023-08-06T07:01:24;17.80;99.90
3816;DHT22;1923;48.154;11.536;2023-08-06T07:03:52;17.80;99.90
3816;DHT22;1923;48.154;11.536;2023-08-06T07:06:21;17.90;99.90
3816;DHT22;1923;48.154;11.536;2023-08-06T07:08:49;18.20;99.90
3816;DHT22;1923;48.154;11.536;2023-08-06T07:11:17;18.50;99.90
3816;DHT22;1923;48.154;11.536;2023-08-06T07:13:45;18.80;99.90
3816;DHT22;1923;48.154;11.536;2023-08-06T07:16:13;18.90;99.90
3816;DHT22;1923;48.154;11.536;2023-08-06T07:18:42;18.90;99.90
3816;DHT22;1923;48.154;11.536;2023-08-06T07:21:11;18.80;99.90
3816;DHT22;1923;48.154;11.536;2023-08-06T07:23:39;18.80;99.90
3816;DHT22;1923;48.154;11.536;2023-08-06T07:26:06;18.80;99.90
3816;DHT22;1923;48.154;11.536;2023-08-06T07:28:37;18.60;99.90
3816;DHT22;1923;48.154;11.536;2023-08-06T07:31:05;18.50;99.90
3816;DHT22;1923;48.154;11.536;2023-08-06T07:33:35;18.40;99.90
3816;DHT22;1923;48.154;11.536;2023-08-06T07:36:09;18.10;99.90
3816;DHT22;1923;48.154;11.536;2023-08-06T07:38:37;17.90;99.90
3816;DHT22;1923;48.154;11.536;2023-08-06T07:41:05;17.70;99.90
3816;DHT22;1923;48.154;11.536;2023-08-06T07:43:34;17.60;99.90
3816;DHT22;1923;48.154;11.536;2023-08-06T07:46:02;17.50;99.90
3816;DHT22;1923;48.154;11.536;2023-08-06T07:48:31;17.30;99.90
3816;DHT22;1923;48.154;11.536;2023-08-06T07:50:59;17.40;99.90
3816;DHT22;1923;48.154;11.536;2023-08-06T07:53:28;17.30;99.90
3816;DHT22;1923;48.154;11.536;2023-08-06T07:55:57;17.40;99.90
3816;DHT22;1923;48.154;11.536;2023-08-06T07:58:26;17.30;99.90
3816;DHT22;1923;48.154;11.536;2023-08-06T08:00:56;17.30;99.90
3816;DHT22;1923;48.154;11.536;2023-08-06T08:03:24;17.60;99.90
3816;DHT22;1923;48.154;11.536;2023-08-06T08:05:54;17.90;99.90
3816;DHT22;1923;48.154;11.536;2023-08-06T08:08:24;18.10;99.90
3816;DHT22;1923;48.154;11.536;2023-08-06T08:10:54;18.50;99.90
3816;DHT22;1923;48.154;11.536;2023-08-06T08:13:22;18.70;99.90
3816;DHT22;1923;48.154;11.536;2023-08-06T08:15:57;18.90;99.90
3816;DHT22;1923;48.154;11.536;2023-08-06T08:18:25;19.40;99.90
3816;DHT22;1923;48.154;11.536;2023-08-06T08:20:54;19.80;99.90
3816;DHT22;1923;48.154;11.536;2023-08-06T08:23:22;20.20;99.90
3816;DHT22;1923;48.154;11.536;2023-08-06T08:25:50;20.10;99.90
3816;DHT22;1923;48.154;11.536;2023-08-06T08:28:19;20.40;99.90
3816;DHT22;1923;48.154;11.536;2023-08-06T08:30:47;20.60;99.90
3816;DHT22;1923;48.154;11.536;2023-08-06T08:33:15;20.70;99.90
3816;DHT22;1923;48.154;11.536;2023-08-06T08:35:45;20.60;99.90
3816;DHT22;1923;48.154;11.536;2023-08-06T08:38:14;20.50;99.90
3816;DHT22;1923;48.154;11.536;2023-08-06T08:40:46;20.40;99.90
3816;DHT22;1923;48.154;11.536;2023-08-06T08:43:15;20.10;99.90
3816;DHT22;1923;48.154;11.536;2023-08-06T08:45:46;20.00;99.90
3816;DHT22;1923;48.154;11.536;2023-08-06T08:48:18;19.70;99.90
3816;DHT22;1923;48.154;11.536;2023-08-06T08:50:48;19.40;99.90
3816;DHT22;1923;48.154;11.536;2023-08-06T08:53:17;19.10;99.90
3816;DHT22;1923;48.154;11.536;2023-08-06T08:55:48;19.00;99.90
3816;DHT22;1923;48.154;11.536;2023-08-06T08:58:17;19.00;99.90
3816;DHT22;1923;48.154;11.536;2023-08-06T09:00:47;18.90;99.90
3816;DHT22;1923;48.154;11.536;2023-08-06T09:03:16;18.80;99.90
3816;DHT22;1923;48.154;11.536;2023-08-06T09:05:45;18.80;99.90
3816;DHT22;1923;48.154;11.536;2023-08-06T09:08:18;18.80;99.90
3816;DHT22;1923;48.154;11.536;2023-08-06T09:10:48;18.80;99.90
3816;DHT22;1923;48.154;11.536;2023-08-06T09:13:18;18.80;99.90
3816;DHT22;1923;48.154;11.536;2023-08-06T09:15:48;19.00;99.90
3816;DHT22;1923;48.154;11.536;2023-08-06T09:18:25;18.70;99.90
3816;DHT22;1923;48.154;11.536;2023-08-06T09:20:54;18.50;99.90
3816;DHT22;1923;48.154;11.536;2023-08-06T09:23:27;18.30;99.90
3816;DHT22;1923;48.154;11.536;2023-08-06T09:25:56;18.20;99.90
3816;DHT22;1923;48.154;11.536;2023-08-06T09:28:25;18.30;99.90
3816;DHT22;1923;48.154;11.536;2023-08-06T09:31:05;18.10;99.90
3816;DHT22;1923;48.154;11.536;2023-08-06T09:33:33;18.20;99.90
3816;DHT22;1923;48.154;11.536;2023-08-06T09:36:07;18.20;99.90
3816;DHT22;1923;48.154;11.536;2023-08-06T09:38:39;18.30;99.90
3816;DHT22;1923;48.154;11.536;2023-08-06T09:41:08;18.30;99.90
3816;DHT22;1923;48.154;11.536;2023-08-06T09:43:40;18.30;99.90
3816;DHT22;1923;48.154;11.536;2023-08-06T09:46:14;18.30;99.90
3816;DHT22;1923;48.154;11.536;2023-08-06T09:48:46;18.40;99.90
3816;DHT22;1923;48.154;11.536;2023-08-06T09:51:14;18.40;99.90
3816;DHT22;1923;48.154;11.536;2023-08-06T09:53:43;18.50;99.90
3816;DHT22;1923;48.154;11.536;2023-08-06T09:56:13;18.50;99.90
3816;DHT22;1923;48.154;11.536;2023-08-06T09:58:42;18.60;99.90
3816;DHT22;1923;48.154;11.536;2023-08-06T10:01:11;18.70;99.90
3816;DHT22;1923;48.154;11.536;2023-08-06T10:03:42;18.60;99.90
3816;DHT22;1923;48.154;11.536;2023-08-06T10:06:11;18.50;99.90
3816;DHT22;1923;48.154;11.536;2023-08-06T10:08:39;18.50;99.90
3816;DHT22;1923;48.154;11.536;2023-08-06T10:11:09;18.60;99.90
3816;DHT22;1923;48.154;11.536;2023-08-06T10:13:38;18.40;99.90
3816;DHT22;1923;48.154;11.536;2023-08-06T10:16:06;18.40;99.90
3816;DHT22;1923;48.154;11.536;2023-08-06T10:18:37;18.40;99.90
3816;DHT22;1923;48.154;11.536;2023-08-06T10:21:09;18.40;99.90
3816;DHT22;1923;48.154;11.536;2023-08-06T10:23:39;18.50;99.90
3816;DHT22;1923;48.154;11.536;2023-08-06T10:26:08;18.70;99.90
3816;DHT22;1923;48.154;11.536;2023-08-06T10:28:37;18.90;99.90
3816;DHT22;1923;48.154;11.536;2023-08-06T10:31:06;19.20;99.90
3816;DHT22;1923;48.154;11.536;2023-08-06T10:33:42;19.60;99.90
3816;DHT22;1923;48.154;11.536;2023-08-06T10:36:12;19.60;99.90
3816;DHT22;1923;48.154;11.536;2023-08-06T10:38:45;19.40;99.90
3816;DHT22;1923;48.154;11.536;2023-08-06T10:41:21;19.20;99.90
3816;DHT22;1923;48.154;11.536;2023-08-06T10:43:50;18.90;99.90
3816;DHT22;1923;48.154;11.536;2023-08-06T10:46:23;18.90;99.90
3816;DHT22;1923;48.154;11.536;2023-08-06T10:48:51;18.90;99.90
3816;DHT22;1923;48.154;11.536;2023-08-06T10:51:20;19.00;99.90
3816;DHT22;1923;48.154;11.536;2023-08-06T10:53:50;19.00;99.90
3816;DHT22;1923;48.154;11.536;2023-08-06T10:56:20;19.00;99.90
3816;DHT22;1923;48.154;11.536;2023-08-06T10:58:50;19.20;99.90
3816;DHT22;1923;48.154;11.536;2023-08-06T11:01:18;19.40;99.90
3816;DHT22;1923;48.154;11.536;2023-08-06T11:03:47;19.80;99.90
3816;DHT22;1923;48.154;11.536;2023-08-06T11:06:17;20.20;99.90
3816;DHT22;1923;48.154;11.536;2023-08-06T11:08:51;20.30;99.90
3816;DHT22;1923;48.154;11.536;2023-08-06T11:11:21;20.10;99.90
3816;DHT22;1923;48.154;11.536;2023-08-06T11:13:51;20.10;99.90
3816;DHT22;1923;48.154;11.536;2023-08-06T11:16:20;20.00;99.90
3816;DHT22;1923;48.154;11.536;2023-08-06T11:18:50;20.00;99.90
3816;DHT22;1923;48.154;11.536;2023-08-06T11:21:20;19.90;99.90
3816;DHT22;1923;48.154;11.536;2023-08-06T11:23:49;19.70;99.90
3816;DHT22;1923;48.154;11.536;2023-08-06T11:26:19;19.60;99.90
3816;DHT22;1923;48.154;11.536;2023-08-06T11:28:48;19.50;99.90
3816;DHT22;1923;48.154;11.536;2023-08-06T11:31:19;19.30;99.90
3816;DHT22;1923;48.154;11.536;2023-08-06T11:33:47;19.30;99.90
3816;DHT22;1923;48.154;11.536;2023-08-06T11:36:16;19.40;99.90
3816;DHT22;1923;48.154;11.536;2023-08-06T11:38:44;19.50;99.90
3816;DHT22;1923;48.154;11.536;2023-08-06T11:41:13;19.50;99.90
3816;DHT22;1923;48.154;11.536;2023-08-06T11:43:41;19.40;99.90
3816;DHT22;1923;48.154;11.536;2023-08-06T11:46:13;19.40;99.90
3816;DHT22;1923;48.154;11.536;2023-08-06T11:48:51;19.40;99.90
3816;DHT22;1923;48.154;11.536;2023-08-06T11:51:22;19.20;99.90
3816;DHT22;1923;48.154;11.536;2023-08-06T11:53:53;19.10;99.90
3816;DHT22;1923;48.154;11.536;2023-08-06T11:56:24;19.10;99.90
3816;DHT22;1923;48.154;11.536;2023-08-06T11:58:52;19.10;99.90
3816;DHT22;1923;48.154;11.536;2023-08-06T12:01:20;19.20;99.90
3816;DHT22;1923;48.154;11.536;2023-08-06T12:03:48;19.30;99.90
3816;DHT22;1923;48.154;11.536;2023-08-06T12:06:16;19.30;99.90
3816;DHT22;1923;48.154;11.536;2023-08-06T12:08:44;19.30;99.90
3816;DHT22;1923;48.154;11.536;2023-08-06T12:11:12;19.20;99.90
3816;DHT22;1923;48.154;11.536;2023-08-06T12:13:42;19.10;99.90
3816;DHT22;1923;48.154;11.536;2023-08-06T12:16:10;19.00;99.90
3816;DHT22;1923;48.154;11.536;2023-08-06T12:18:40;19.10;99.90
3816;DHT22;1923;48.154;11.536;2023-08-06T12:21:08;19.10;99.90
3816;DHT22;1923;48.154;11.536;2023-08-06T12:23:36;19.10;99.90
3816;DHT22;1923;48.154;11.536;2023-08-06T12:26:04;19.20;99.90
3816;DHT22;1923;48.154;11.536;2023-08-06T12:28:32;19.30;99.90
3816;DHT22;1923;48.154;11.536;2023-08-06T12:31:02;19.20;99.90
3816;DHT22;1923;48.154;11.536;2023-08-06T12:33:30;19.20;99.90
3816;DHT22;1923;48.154;11.536;2023-08-06T12:35:58;19.20;99.90
3816;DHT22;1923;48.154;11.536;2023-08-06T12:38:26;19.20;99.90
3816;DHT22;1923;48.154;11.536;2023-08-06T12:40:54;19.30;99.90
3816;DHT22;1923;48.154;11.536;2023-08-06T12:43:22;19.10;99.90
3816;DHT22;1923;48.154;11.536;2023-08-06T12:45:50;18.70;99.90
3816;DHT22;1923;48.154;11.536;2023-08-06T12:48:20;18.60;99.90
3816;DHT22;1923;48.154;11.536;2023-08-06T12:50:48;18.30;99.90
3816;DHT22;1923;48.154;11.536;2023-08-06T12:53:16;17.90;99.90
3816;DHT22;1923;48.154;11.536;2023-08-06T12:55:44;17.80;99.90
3816;DHT22;1923;48.154;11.536;2023-08-06T12:58:12;17.60;99.90
3816;DHT22;1923;48.154;11.536;2023-08-06T13:00:40;17.80;99.90
3816;DHT22;1923;48.154;11.536;2023-08-06T13:03:09;17.90;99.90
3816;DHT22;1923;48.154;11.536;2023-08-06T13:05:38;18.00;99.90
3816;DHT22;1923;48.154;11.536;2023-08-06T13:08:06;18.10;99.90
3816;DHT22;1923;48.154;11.536;2023-08-06T13:10:34;18.20;99.90
3816;DHT22;1923;48.154;11.536;2023-08-06T13:13:03;18.40;99.90
3816;DHT22;1923;48.154;11.536;2023-08-06T13:15:32;18.60;99.90
3816;DHT22;1923;48.154;11.536;2023-08-06T13:17:59;18.70;99.90
3816;DHT22;1923;48.154;11.536;2023-08-06T13:20:30;18.80;99.90
3816;DHT22;1923;48.154;11.536;2023-08-06T13:23:00;18.80;99.90
3816;DHT22;1923;48.154;11.536;2023-08-06T13:25:28;18.60;99.90
3816;DHT22;1923;48.154;11.536;2023-08-06T13:27:56;18.20;99.90
3816;DHT22;1923;48.154;11.536;2023-08-06T13:30:24;18.00;99.90
3816;DHT22;1923;48.154;11.536;2023-08-06T13:32:52;17.70;99.90
3816;DHT22;1923;48.154;11.536;2023-08-06T13:35:22;17.30;99.90
3816;DHT22;1923;48.154;11.536;2023-08-06T13:37:50;17.20;99.90
3816;DHT22;1923;48.154;11.536;2023-08-06T13:40:20;17.30;99.90
3816;DHT22;1923;48.154;11.536;2023-08-06T13:42:48;17.40;99.90
3816;DHT22;1923;48.154;11.536;2023-08-06T13:45:16;17.50;99.90
3816;DHT22;1923;48.154;11.536;2023-08-06T13:47:44;17.50;99.90
3816;DHT22;1923;48.154;11.536;2023-08-06T13:50:12;17.50;99.90
3816;DHT22;1923;48.154;11.536;2023-08-06T13:52:40;17.50;99.90
3816;DHT22;1923;48.154;11.536;2023-08-06T13:55:08;17.40;99.90
3816;DHT22;1923;48.154;11.536;2023-08-06T13:57:38;17.30;99.90
3816;DHT22;1923;48.154;11.536;2023-08-06T14:00:07;17.30;99.90
3816;DHT22;1923;48.154;11.536;2023-08-06T14:02:35;17.30;99.90
3816;DHT22;1923;48.154;11.536;2023-08-06T14:05:04;17.10;99.90
3816;DHT22;1923;48.154;11.536;2023-08-06T14:07:32;17.10;99.90
3816;DHT22;1923;48.154;11.536;2023-08-06T14:10:00;16.90;99.90
3816;DHT22;1923;48.154;11.536;2023-08-06T14:12:28;16.80;99.90
3816;DHT22;1923;48.154;11.536;2023-08-06T14:14:58;16.80;99.90
3816;DHT22;1923;48.154;11.536;2023-08-06T14:17:26;16.90;99.90
3816;DHT22;1923;48.154;11.536;2023-08-06T14:19:54;16.90;99.90
3816;DHT22;1923;48.154;11.536;2023-08-06T14:22:22;16.90;99.90
3816;DHT22;1923;48.154;11.536;2023-08-06T14:24:50;16.90;99.90
3816;DHT22;1923;48.154;11.536;2023-08-06T14:27:18;16.90;99.90
3816;DHT22;1923;48.154;11.536;2023-08-06T14:29:46;16.90;99.90
3816;DHT22;1923;48.154;11.536;2023-08-06T14:32:15;16.90;99.90
3816;DHT22;1923;48.154;11.536;2023-08-06T14:34:44;16.80;99.90
3816;DHT22;1923;48.154;11.536;2023-08-06T14:37:12;16.60;99.90
3816;DHT22;1923;48.154;11.536;2023-08-06T14:39:44;16.50;99.90
3816;DHT22;1923;48.154;11.536;2023-08-06T14:42:12;16.50;99.90
3816;DHT22;1923;48.154;11.536;2023-08-06T14:44:40;16.30;99.90
3816;DHT22;1923;48.154;11.536;2023-08-06T14:47:08;16.30;99.90
3816;DHT22;1923;48.154;11.536;2023-08-06T14:49:38;16.20;99.90
3816;DHT22;1923;48.154;11.536;2023-08-06T14:52:07;16.20;99.90
3816;DHT22;1923;48.154;11.536;2023-08-06T14:54:34;16.10;99.90
3816;DHT22;1923;48.154;11.536;2023-08-06T14:57:03;16.10;99.90
3816;DHT22;1923;48.154;11.536;2023-08-06T14:59:33;16.00;99.90
3816;DHT22;1923;48.154;11.536;2023-08-06T15:02:01;16.00;99.90
3816;DHT22;1923;48.154;11.536;2023-08-06T15:04:30;16.00;99.90
3816;DHT22;1923;48.154;11.536;2023-08-06T15:06:59;16.00;99.90
3816;DHT22;1923;48.154;11.536;2023-08-06T15:09:27;15.90;99.90
3816;DHT22;1923;48.154;11.536;2023-08-06T15:11:55;15.90;99.90
3816;DHT22;1923;48.154;11.536;2023-08-06T15:14:23;15.90;99.90
3816;DHT22;1923;48.154;11.536;2023-08-06T15:16:51;16.10;99.90
3816;DHT22;1923;48.154;11.536;2023-08-06T15:19:23;16.20;99.90
3816;DHT22;1923;48.154;11.536;2023-08-06T15:21:52;16.20;99.90
3816;DHT22;1923;48.154;11.536;2023-08-06T15:24:22;16.20;99.90
3816;DHT22;1923;48.154;11.536;2023-08-06T15:26:50;16.30;99.90
3816;DHT22;1923;48.154;11.536;2023-08-06T15:29:18;16.20;99.90
3816;DHT22;1923;48.154;11.536;2023-08-06T15:31:47;16.20;99.90
3816;DHT22;1923;48.154;11.536;2023-08-06T15:34:15;16.20;99.90
3816;DHT22;1923;48.154;11.536;2023-08-06T15:36:43;16.00;99.90
3816;DHT22;1923;48.154;11.536;2023-08-06T15:39:11;16.00;99.90
3816;DHT22;1923;48.154;11.536;2023-08-06T15:41:41;15.90;99.90
3816;DHT22;1923;48.154;11.536;2023-08-06T15:44:09;15.80;99.90
3816;DHT22;1923;48.154;11.536;2023-08-06T15:46:37;15.90;99.90
3816;DHT22;1923;48.154;11.536;2023-08-06T15:49:05;15.70;99.90
3816;DHT22;1923;48.154;11.536;2023-08-06T15:51:33;15.70;99.90
3816;DHT22;1923;48.154;11.536;2023-08-06T15:54:02;15.80;99.90
3816;DHT22;1923;48.154;11.536;2023-08-06T15:56:31;15.70;99.90